Time;durP1;ratioP1;P1;durP2;ratioP2;P2;SDS_P1;SDS_P2;PMS_P1;PMS_P2;Temp;Humidity;BMP_temperature;BMP_pressure;BME280_temperature;BME280_humidity;BME280_pressure;Samples;Min_cycle;Max_cycle;Signal;HPM_P1;HPM_P2
2022/08/25 06:12:23;;;;;;;12.10;4.40;;;26.10;99.90;;;;;;4786178;29;20244;-90
2022/08/25 06:15:39;;;;;;;;;;;;;;;;;;;;;
2022/08/25 06:25:56;;;;;;;;;;;;;;;;;;;;;
2022/08/25 06:36:02;;;;;;;;;;;;;;;;;;;;;
2022/08/25 07:03:33;;;;;;;8.82;3.60;;;27.10;99.90;;;;;;5209610;23;20229;-96
2022/08/25 07:22:09;;;;;;;10.45;3.83;;;28.00;99.90;;;;;;5189660;23;20221;-95
2022/08/25 07:44:28;;;;;;;10.60;3.95;;;28.00;1.00;;;;;;4942614;29;20208;-95
2022/08/25 07:51:20;;;;;;;7.80;3.33;;;27.80;1.00;;;;;;4942436;29;20216;-95
2022/08/25 07:54:44;;;;;;;10.35;3.58;;;27.80;1.00;;;;;;4939294;29;20184;-96
2022/08/25 07:58:13;;;;;;;7.55;3.30;;;27.90;16.20;;;;;;4868927;29;20175;-96
2022/08/25 08:04:24;;;;;;;;;;;;;;;;;;;;;
2022/08/25 08:07:31;;;;;;;10.88;3.15;;;27.80;99.90;;;;;;4879332;29;20222;-96
2022/08/25 08:19:15;;;;;;;7.15;2.95;;;28.30;1.00;;;;;;4935837;27;20596;-96
2022/08/25 08:29:38;;;;;;;8.45;3.28;;;28.80;1.00;;;;;;4874564;29;20282;-96
2022/08/25 08:32:12;;;;;;;12.57;3.70;;;28.90;99.90;;;;;;4930269;29;20200;-96
2022/08/25 08:37:21;;;;;;;9.70;3.20;;;29.20;99.90;;;;;;5013108;23;20610;-95
2022/08/25 08:39:47;;;;;;;10.32;2.90;;;29.30;99.90;;;;;;4923860;29;20210;-95
2022/08/25 08:42:38;;;;;;;8.38;2.88;;;29.50;99.90;;;;;;4921610;29;20194;-95
2022/08/25 08:45:22;;;;;;;5.32;2.80;;;29.70;99.90;;;;;;4922713;29;20228;-93
2022/08/25 08:48:03;;;;;;;8.95;2.40;;;29.90;13.90;;;;;;4922597;29;20185;-94
2022/08/25 08:50:54;;;;;;;8.38;2.80;;;30.10;1.00;;;;;;4907084;29;20199;-94
2022/08/25 08:53:49;;;;;;;6.55;2.60;;;30.30;1.00;;;;;;4903729;29;20186;-96
2022/08/25 08:56:21;;;;;;;5.47;2.55;;;30.40;1.00;;;;;;4904328;29;20237;-96
2022/08/25 08:59:00;;;;;;;8.05;2.63;;;30.50;1.00;;;;;;4901698;29;20182;-96
2022/08/25 09:01:35;;;;;;;5.38;2.30;;;30.50;1.00;;;;;;4902356;29;20186;-94
2022/08/25 09:04:39;;;;;;;4.18;2.35;;;30.40;1.00;;;;;;4887329;29;20228;-96
2022/08/25 09:07:13;;;;;;;6.38;2.65;;;30.60;1.00;;;;;;4885848;29;20663;-95
2022/08/25 09:09:41;;;;;;;11.13;2.50;;;30.70;99.90;;;;;;4884856;29;20202;-95
2022/08/25 09:12:28;;;;;;;8.35;2.33;;;30.90;99.90;;;;;;4884067;29;20239;-96
2022/08/25 09:15:05;;;;;;;5.75;1.98;;;30.90;99.90;;;;;;4893665;29;20179;-95
2022/08/25 09:17:58;;;;;;;7.55;2.17;;;30.90;99.90;;;;;;4880899;29;20193;-95
2022/08/25 09:20:51;;;;;;;16.88;3.70;;;31.00;99.90;;;;;;4901877;29;20166;-95
2022/08/25 09:23:24;;;;;;;8.55;2.55;;;31.00;99.90;;;;;;4895202;29;20179;-94
2022/08/25 09:26:35;;;;;;;3.90;2.17;;;31.40;99.90;;;;;;5163029;27;20547;-94
2022/08/25 09:29:12;;;;;;;5.93;2.15;;;31.50;99.90;;;;;;5131166;28;20182;-96
2022/08/25 09:31:40;;;;;;;7.88;2.65;;;31.50;99.90;;;;;;5133946;28;20171;-94
2022/08/25 09:34:20;;;;;;;4.72;2.22;;;31.40;99.90;;;;;;5104403;22;20208;-94
2022/08/25 09:36:51;;;;;;;5.85;2.67;;;31.30;99.90;;;;;;5049758;28;20264;-95
2022/08/25 09:39:20;;;;;;;8.82;2.70;;;31.40;99.90;;;;;;5060236;28;20200;-96
2022/08/25 09:41:54;;;;;;;9.50;2.58;;;31.50;99.90;;;;;;5058968;28;20192;-94
2022/08/25 09:44:29;;;;;;;8.77;2.88;;;31.60;99.90;;;;;;5065894;28;20220;-96
2022/08/25 09:47:14;;;;;;;5.07;2.70;;;31.80;99.90;;;;;;5060868;28;20231;-95
2022/08/25 09:49:43;;;;;;;5.72;2.03;;;32.00;99.90;;;;;;5081570;28;20197;-93
2022/08/25 09:52:30;;;;;;;5.63;2.00;;;32.10;99.90;;;;;;5084018;22;20209;-94
2022/08/25 09:55:24;;;;;;;5.22;2.42;;;32.30;99.90;;;;;;5072304;28;20204;-94
2022/08/25 09:57:59;;;;;;;19.73;4.13;;;32.40;99.90;;;;;;5052115;28;20179;-95
2022/08/25 10:00:40;;;;;;;11.55;3.10;;;32.60;93.60;;;;;;5039226;28;20169;-95
2022/08/25 10:14:14;;;;;;;3.78;1.75;;;32.50;1.00;;;;;;5009135;28;20174;-96
2022/08/25 10:20:48;;;;;;;6.50;2.60;;;32.60;1.00;;;;;;5009073;28;20226;-95
2022/08/25 10:24:01;;;;;;;;;;;;;;;;;;;;;
2022/08/25 10:47:59;;;;;;;7.57;2.28;;;32.90;1.00;;;;;;4950527;29;20223;-96
2022/08/25 10:54:55;;;;;;;;;;;;;;;;;;;;;
2022/08/25 10:57:55;;;;;;;4.28;2.20;;;33.40;1.00;;;;;;4994393;28;20190;-96
2022/08/25 11:00:47;;;;;;;7.78;2.30;;;33.70;1.00;;;;;;5025167;28;20217;-96
2022/08/25 11:03:42;;;;;;;3.67;1.90;;;33.70;1.00;;;;;;5009851;28;20182;-96
2022/08/25 11:06:44;;;;;;;6.57;2.38;;;33.70;1.00;;;;;;5025280;28;20182;-96
2022/08/25 11:09:30;;;;;;;3.25;2.05;;;33.80;1.00;;;;;;5025256;28;20166;-96
2022/08/25 11:12:19;;;;;;;4.00;2.28;;;33.60;1.00;;;;;;5025987;28;20182;-96
2022/08/25 11:15:16;;;;;;;4.07;1.90;;;33.50;1.00;;;;;;5026916;28;20179;-96
2022/08/25 11:18:25;;;;;;;3.92;2.08;;;33.80;1.00;;;;;;5010468;28;20212;-96
2022/08/25 11:21:36;;;;;;;4.93;2.10;;;33.80;1.00;;;;;;5030643;28;20309;-96
2022/08/25 11:24:39;;;;;;;6.32;2.20;;;33.90;1.00;;;;;;5010597;28;20217;-96
2022/08/25 11:27:54;;;;;;;8.35;2.67;;;34.00;1.00;;;;;;5035614;28;20197;-95
2022/08/25 11:30:43;;;;;;;6.10;2.78;;;34.20;1.00;;;;;;5018459;28;20205;-96
2022/08/25 11:33:29;;;;;;;12.40;2.90;;;34.20;1.00;;;;;;5016174;28;20174;-96
2022/08/25 11:40:18;;;;;;;4.85;2.00;;;34.20;1.00;;;;;;5023043;28;20174;-96
2022/08/25 11:43:09;;;;;;;4.95;2.00;;;34.40;1.00;;;;;;5029392;28;20193;-96
2022/08/25 11:46:23;;;;;;;4.88;2.20;;;34.50;1.00;;;;;;5029106;28;20202;-96
2022/08/25 11:49:30;;;;;;;6.40;2.20;;;33.60;1.00;;;;;;5030613;28;20174;-96
2022/08/25 11:52:39;;;;;;;4.30;2.20;;;33.30;1.00;;;;;;5011843;28;20178;-96
2022/08/25 11:56:11;;;;;;;16.02;3.80;;;33.10;1.00;;;;;;5015722;28;20174;-95
2022/08/25 11:59:24;;;;;;;6.65;2.10;;;33.40;1.00;;;;;;4989195;28;20195;-96
2022/08/25 12:06:20;;;;;;;6.53;2.53;;;33.80;1.00;;;;;;4980655;28;20298;-96
2022/08/25 12:13:07;;;;;;;8.02;2.53;;;34.30;1.00;;;;;;4988354;28;20195;-95
2022/08/25 12:16:22;;;;;;;9.32;2.45;;;34.60;1.00;;;;;;4984825;28;20187;-96
2022/08/25 12:18:58;;;;;;;5.55;2.10;;;34.80;1.00;;;;;;4983956;28;20170;-96
2022/08/25 12:22:02;;;;;;;5.03;2.20;;;34.80;1.00;;;;;;5021043;28;20173;-96
2022/08/25 12:25:47;;;;;;;;;;;;;;;;;;;;;
2022/08/25 12:32:08;;;;;;;5.53;1.90;;;35.10;1.00;;;;;;4981806;28;20203;-96
2022/08/25 12:35:09;;;;;;;4.95;2.42;;;34.70;1.00;;;;;;4971678;28;20182;-96
2022/08/25 12:38:27;;;;;;;4.22;2.03;;;34.90;1.00;;;;;;5008179;28;20189;-96
2022/08/25 12:41:27;;;;;;;5.38;2.30;;;34.80;1.00;;;;;;5037079;28;20168;-96
2022/08/25 12:44:38;;;;;;;6.60;2.63;;;35.00;1.00;;;;;;5020175;28;20189;-96
2022/08/25 12:48:40;;;;;;;5.57;2.72;;;34.60;1.00;;;;;;5010608;28;20242;-96
2022/08/25 12:51:12;;;;;;;5.13;1.77;;;34.60;1.00;;;;;;5007515;28;20235;-96
2022/08/25 12:54:29;;;;;;;3.60;2.10;;;34.10;1.00;;;;;;5003946;28;20182;-96
2022/08/25 12:57:43;;;;;;;;;;;;;;;;;;;;;
2022/08/25 13:01:08;;;;;;;5.88;2.20;;;34.40;1.00;;;;;;5021748;28;20250;-96
2022/08/25 13:21:54;;;;;;;3.65;2.05;;;34.30;1.00;;;;;;4807857;29;20197;-96
2022/08/25 13:29:19;;;;;;;3.72;2.10;;;34.40;1.00;;;;;;4857778;29;20246;-96
2022/08/25 13:31:43;;;;;;;4.88;2.30;;;34.30;1.00;;;;;;4864655;29;20239;-96
2022/08/25 13:39:02;;;;;;;8.40;2.60;;;34.20;1.00;;;;;;5061879;28;20161;-96
2022/08/25 13:42:20;;;;;;;;;;;;;;;;;;;;;
2022/08/25 13:45:29;;;;;;;;;;;;;;;;;;;;;
2022/08/25 13:48:35;;;;;;;6.22;2.50;;;33.80;1.00;;;;;;5034794;28;20202;-96
2022/08/25 13:51:26;;;;;;;5.82;2.60;;;34.10;1.00;;;;;;4996474;28;20179;-96
2022/08/25 13:54:53;;;;;;;3.83;2.30;;;34.30;1.00;;;;;;5002377;28;20198;-96
2022/08/25 13:58:02;;;;;;;8.88;4.82;;;34.20;1.00;;;;;;4990030;28;20176;-96
2022/08/25 14:01:23;;;;;;;9.98;5.78;;;32.90;1.00;;;;;;5001437;28;20198;-96
2022/08/25 14:05:20;;;;;;;10.93;5.07;;;32.40;99.90;;;;;;5008015;28;20207;-96
2022/08/25 14:08:50;;;;;;;;;;;;;;;;;;;;;
2022/08/25 14:11:37;;;;;;;14.55;5.47;;;31.40;99.90;;;;;;5002761;28;20159;-96
2022/08/25 14:14:35;;;;;;;9.65;4.97;;;30.80;1.00;;;;;;5005283;28;20175;-96
2022/08/25 14:17:43;;;;;;;9.68;5.30;;;30.70;1.00;;;;;;4992379;28;20189;-96
2022/08/25 14:20:41;;;;;;;9.07;5.15;;;30.80;1.40;;;;;;4993413;28;20240;-96
2022/08/25 14:23:43;;;;;;;9.07;5.07;;;30.90;1.00;;;;;;4980696;28;20218;-96
2022/08/25 14:26:53;;;;;;;10.13;4.88;;;30.80;1.00;;;;;;5017164;28;20233;-96
2022/08/25 14:29:53;;;;;;;8.63;4.90;;;30.60;99.90;;;;;;5015439;28;20194;-96
2022/08/25 14:32:50;;;;;;;10.65;5.07;;;30.80;99.90;;;;;;4993945;28;20218;-96
2022/08/25 14:35:44;;;;;;;8.18;4.80;;;30.70;1.00;;;;;;4996149;28;20171;-96
2022/08/25 14:38:25;;;;;;;8.73;5.65;;;30.70;1.00;;;;;;5000132;28;20278;-96
2022/08/25 14:41:12;;;;;;;8.77;6.10;;;30.80;99.90;;;;;;4998406;28;20179;-96
2022/08/25 14:44:48;;;;;;;;;;;;;;;;;;;;;
2022/08/25 14:47:31;;;;;;;5.90;4.65;;;30.60;99.90;;;;;;5010551;28;20396;-96
2022/08/25 14:50:10;;;;;;;10.20;4.70;;;31.00;99.90;;;;;;4980709;28;20226;-96
2022/08/25 14:53:02;;;;;;;9.05;3.92;;;31.10;1.00;;;;;;4995465;28;20186;-96
2022/08/25 14:56:28;;;;;;;6.28;4.40;;;31.40;99.90;;;;;;5014090;28;20175;-96
2022/08/25 14:59:15;;;;;;;6.57;3.75;;;31.40;99.90;;;;;;5010159;28;20179;-96
2022/08/25 15:01:53;;;;;;;6.18;3.70;;;31.30;64.80;;;;;;4995591;28;20182;-96
2022/08/25 15:05:17;;;;;;;;;;;;;;;;;;;;;
2022/08/25 15:11:10;;;;;;;11.27;6.25;;;31.00;4.80;;;;;;5017947;28;20245;-96
2022/08/25 15:14:00;;;;;;;;;;;;;;;;;;;;;
2022/08/25 15:17:31;;;;;;;10.38;7.10;;;30.70;1.00;;;;;;5012663;28;20210;-96
2022/08/25 15:20:20;;;;;;;12.02;7.60;;;30.70;48.20;;;;;;4972775;28;20258;-96
2022/08/25 15:26:32;;;;;;;16.23;8.93;;;30.60;1.00;;;;;;4978702;28;20213;-96
2022/08/25 15:29:24;;;;;;;14.05;11.00;;;30.60;1.00;;;;;;5002859;28;20170;-96
2022/08/25 15:36:20;;;;;;;12.45;9.35;;;30.10;1.00;;;;;;5017592;28;20182;-96
2022/08/25 15:38:54;;;;;;;11.77;9.88;;;29.90;1.00;;;;;;5008484;28;20193;-96
2022/08/25 15:42:44;;;;;;;14.05;9.98;;;29.80;99.90;;;;;;5011255;28;20191;-96
2022/08/25 15:49:21;;;;;;;16.52;9.98;;;29.70;1.00;;;;;;4939846;29;20191;-96
2022/08/25 15:52:00;;;;;;;11.73;10.52;;;29.70;1.00;;;;;;4957376;28;20348;-96
2022/08/25 15:55:19;;;;;;;11.82;8.70;;;29.50;1.00;;;;;;5011082;28;20190;-96
2022/08/25 15:58:14;;;;;;;13.02;10.00;;;29.60;1.00;;;;;;4991231;28;20179;-96
2022/08/25 16:01:00;;;;;;;13.52;11.43;;;29.40;1.00;;;;;;4993478;28;20159;-96
2022/08/25 16:04:28;;;;;;;;;;;;;;;;;;;;;
2022/08/25 16:07:49;;;;;;;;;;;;;;;;;;;;;
2022/08/25 16:10:53;;;;;;;;;;;;;;;;;;;;;
2022/08/25 16:13:35;;;;;;;13.40;11.20;;;29.20;99.90;;;;;;5009347;28;20221;-96
2022/08/25 16:16:19;;;;;;;13.45;11.50;;;29.10;99.90;;;;;;4991766;28;20171;-96
2022/08/25 16:19:04;;;;;;;15.55;11.60;;;28.70;99.90;;;;;;4994300;28;20166;-96
2022/08/25 16:22:13;;;;;;;;;;;;;;;;;;;;;
2022/08/25 16:28:58;;;;;;;19.17;14.23;;;28.60;99.90;;;;;;4905359;29;20201;-96
2022/08/25 16:32:24;;;;;;;;;;;;;;;;;;;;;
2022/08/25 16:43:20;;;;;;;17.02;13.80;;;28.00;1.00;;;;;;4939726;28;20228;-96
2022/08/25 16:46:56;;;;;;;17.13;13.73;;;28.00;1.00;;;;;;4939105;28;20219;-96
2022/08/25 16:56:47;;;;;;;21.77;14.73;;;27.70;1.00;;;;;;4939521;29;20197;-96
2022/08/25 17:10:32;;;;;;;;;;;;;;;;;;;;;
2022/08/25 17:35:13;;;;;;;;;;;;;;;;;;;;;
2022/08/25 17:46:51;;;;;;;21.47;15.63;;;26.10;1.00;;;;;;5508758;22;20204;-95
2022/08/25 17:53:34;;;;;;;22.00;15.93;;;26.10;1.00;;;;;;5366717;22;20271;-94
2022/08/25 18:46:21;;;;;;;21.87;16.47;;;24.80;3.30;;;;;;4736194;22;20251;-88
2022/08/25 18:49:17;;;;;;;21.70;16.40;;;24.70;6.00;;;;;;5051859;28;20222;-86
2022/08/25 18:56:06;;;;;;;21.87;14.43;;;24.70;10.20;;;;;;4996136;28;20194;-89
2022/08/25 19:23:59;;;;;;;;;;;;;;;;;;;;;
2022/08/25 19:59:55;;;;;;;13.63;8.53;;;22.80;61.30;;;;;;5112614;28;20201;-93
2022/08/25 20:43:46;;;;;;;13.83;3.90;;;22.40;52.40;;;;;;4869304;29;20237;-92
2022/08/25 21:47:40;;;;;;;;;;;;;;;;;;;;;
2022/08/25 21:57:53;;;;;;;;;;;;;;;;;;;;;
2022/08/25 22:11:54;;;;;;;9.47;4.90;;;21.50;94.40;;;;;;5460033;23;20243;-92
